LPPTLPPR

Guest
Details From LPPT - Lisboa
To LPPR - Porto
Flight Number -
Tags Standard
Created
Modified
Stats Distance 151 nm / 279 km
Max Altitude 0 ft / 0 m
Waypoints 3
Social Downloads 18
Likes 0
Share VATSIM

Download

Looking for another format? Having issues loading an existing format? Contact us
Advertisement - Login to hide

Notes

None

Route

LPPT PG LPPR

ID Type Via Altitude Latitude Longitude Leg Dist Tot Dist Heading (true) Name
O LPPT APT - 0 ft / 0 m 38.78624˚ -9.13721˚ - 0 nm - -
PG NDB - 0 ft / 0 m 41.07809˚ -8.63654˚ 139 nm 139 nm 9° / 10° PORTO NDB
O LPPR APT - 0 ft / 0 m 41.26333˚ -8.68524˚ 11 nm 150 nm 349° / 349° -

Altitude Profile

Advertisement - Login to hide

LPPT

Details ICAO LPPT (LIS)
Name Lisboa
Region Portugal
Timezone Europe/Lisbon (UTC+0.0)
Stats Elevation 374 ft / 114 m (AMSL)
Location 38.778559° -9.135146°
Runways 2
Magnetic Variation 2.364° W

METAR

LPPT 150100Z 28009KT 240V320 9999 BKN010 15/14 Q1020

Decode

TAF

TAF LPPT 142300Z 1500/1606 29008KT 9999 SCT010 BKN020 TEMPO 1500/1513 VRB03KT 3000 -RADZ BR SCT004 BKN008 BECMG 1513/1515 36010KT SCT020 BECMG 1600/1602 CAVOK

Decode

Departure Runways

ID Width Length Bearing (true) Bearing (mag) Surface Threshold Offset Overrun Length
03 148 ft / 45 m 12,518 ft / 3,815 m 22.70° 25.06° Asphalt 296 ft / 90 m 0 ft / 0 m
17 148 ft / 45 m 7,922 ft / 2,415 m 168.38° 170.74° Asphalt 0 ft / 0 m 0 ft / 0 m
21 148 ft / 45 m 12,518 ft / 3,815 m 202.72° 205.08° Asphalt 1,969 ft / 600 m 0 ft / 0 m
35 148 ft / 45 m 7,922 ft / 2,415 m 348.38° 350.74° Asphalt 492 ft / 150 m 0 ft / 0 m

LPPR

Details ICAO LPPR (OPO)
Name Porto
Region Portugal
Timezone Europe/Lisbon (UTC+0.0)
Stats Elevation 228 ft / 69 m (AMSL)
Location 41.247932° -8.681221°
Runways 1
Magnetic Variation 2.339° W

METAR

LPPR 150100Z 21003KT 9999 BKN030 BKN040 13/12 Q1018

Decode

TAF

TAF LPPR 142300Z 1500/1524 VRB03KT 9999 SCT010 BKN020 TEMPO 1500/1507 31008KT 3000 -RADZ BR SCT002 BKN004 BECMG 1507/1510 35010KT FEW015 SCT030 BECMG 1518/1520 05007KT CAVOK

Decode

Destination Runways

ID Width Length Bearing (true) Bearing (mag) Surface Threshold Offset Overrun Length
17 148 ft / 45 m 11,451 ft / 3,490 m 168.88° 171.22° Asphalt 984 ft / 300 m 220 ft / 67 m
35 148 ft / 45 m 11,451 ft / 3,490 m 348.89° 351.23° Asphalt 492 ft / 150 m 370 ft / 113 m

Approach Navaids

Runway Type Ident Frequency Range Bearing (true) Bearing (mag) Slope Elevation
17 Localiser PR 109.90 MHz 18 nm / 33 km 168.87° 171.21° - 228 ft / 69 m (AMSL)
17 Glidescope PR 109.90 MHz 10 nm / 19 km 168.88° 171.22° 2.72° 228 ft / 69 m (AMSL)
17 DME PR 109.90 MHz 18 nm / 33 km - - - 228 ft / 69 m (AMSL)

Popular Alternatives